sensor_id;sensor_type;location;lat;lon;timestamp;P1;durP1;ratioP1;P2;durP2;ratioP2
18168;SDS011;49877;50.398;30.324;2022-12-10T00:01:11;131.80;;;45.00;;
18168;SDS011;49877;50.398;30.324;2022-12-10T00:03:39;108.90;;;42.23;;
18168;SDS011;49877;50.398;30.324;2022-12-10T00:06:07;159.27;;;52.93;;
18168;SDS011;49877;50.398;30.324;2022-12-10T00:08:36;156.50;;;51.27;;
18168;SDS011;49877;50.398;30.324;2022-12-10T00:11:06;210.80;;;64.80;;
18168;SDS011;49877;50.398;30.324;2022-12-10T00:13:35;191.37;;;61.07;;
18168;SDS011;49877;50.398;30.324;2022-12-10T00:16:04;165.00;;;52.93;;
18168;SDS011;49877;50.398;30.324;2022-12-10T00:18:32;157.97;;;51.10;;
18168;SDS011;49877;50.398;30.324;2022-12-10T00:21:01;302.97;;;59.13;;
18168;SDS011;49877;50.398;30.324;2022-12-10T00:23:28;217.77;;;52.93;;
18168;SDS011;49877;50.398;30.324;2022-12-10T00:26:00;202.10;;;50.23;;
18168;SDS011;49877;50.398;30.324;2022-12-10T00:28:29;237.03;;;51.80;;
18168;SDS011;49877;50.398;30.324;2022-12-10T00:31:01;209.70;;;47.17;;
18168;SDS011;49877;50.398;30.324;2022-12-10T00:33:29;343.33;;;56.90;;
18168;SDS011;49877;50.398;30.324;2022-12-10T00:36:00;188.97;;;42.57;;
18168;SDS011;49877;50.398;30.324;2022-12-10T00:38:28;140.03;;;38.53;;
18168;SDS011;49877;50.398;30.324;2022-12-10T00:40:55;150.33;;;37.13;;
18168;SDS011;49877;50.398;30.324;2022-12-10T00:43:22;144.10;;;36.90;;
18168;SDS011;49877;50.398;30.324;2022-12-10T00:45:50;138.63;;;35.57;;
18168;SDS011;49877;50.398;30.324;2022-12-10T00:48:17;231.20;;;40.13;;
18168;SDS011;49877;50.398;30.324;2022-12-10T00:50:43;185.53;;;39.33;;
18168;SDS011;49877;50.398;30.324;2022-12-10T00:53:10;207.93;;;38.90;;
18168;SDS011;49877;50.398;30.324;2022-12-10T00:55:37;179.50;;;39.00;;
18168;SDS011;49877;50.398;30.324;2022-12-10T00:58:04;142.67;;;36.13;;
18168;SDS011;49877;50.398;30.324;2022-12-10T01:00:30;216.43;;;43.57;;
18168;SDS011;49877;50.398;30.324;2022-12-10T01:02:59;340.73;;;46.77;;
18168;SDS011;49877;50.398;30.324;2022-12-10T01:05:25;289.43;;;45.67;;
18168;SDS011;49877;50.398;30.324;2022-12-10T01:07:52;279.07;;;43.20;;
18168;SDS011;49877;50.398;30.324;2022-12-10T01:10:19;156.60;;;35.93;;
18168;SDS011;49877;50.398;30.324;2022-12-10T01:12:46;199.97;;;38.07;;
18168;SDS011;49877;50.398;30.324;2022-12-10T01:15:12;371.10;;;46.20;;
18168;SDS011;49877;50.398;30.324;2022-12-10T01:17:39;263.53;;;41.07;;
18168;SDS011;49877;50.398;30.324;2022-12-10T01:20:08;183.47;;;36.73;;
18168;SDS011;49877;50.398;30.324;2022-12-10T01:22:37;126.00;;;32.40;;
18168;SDS011;49877;50.398;30.324;2022-12-10T01:25:04;341.53;;;43.77;;
18168;SDS011;49877;50.398;30.324;2022-12-10T01:27:31;144.40;;;32.43;;
18168;SDS011;49877;50.398;30.324;2022-12-10T01:29:58;224.17;;;37.90;;
18168;SDS011;49877;50.398;30.324;2022-12-10T01:32:25;224.40;;;37.73;;
18168;SDS011;49877;50.398;30.324;2022-12-10T01:34:51;142.40;;;32.30;;
18168;SDS011;49877;50.398;30.324;2022-12-10T01:37:20;237.53;;;38.30;;
18168;SDS011;49877;50.398;30.324;2022-12-10T01:39:46;115.77;;;29.33;;
18168;SDS011;49877;50.398;30.324;2022-12-10T01:42:13;157.07;;;30.63;;
18168;SDS011;49877;50.398;30.324;2022-12-10T01:45:04;108.43;;;27.10;;
18168;SDS011;49877;50.398;30.324;2022-12-10T01:47:34;144.63;;;27.07;;
18168;SDS011;49877;50.398;30.324;2022-12-10T01:50:01;173.73;;;29.47;;
18168;SDS011;49877;50.398;30.324;2022-12-10T01:52:31;185.53;;;28.93;;
18168;SDS011;49877;50.398;30.324;2022-12-10T01:54:57;133.60;;;28.37;;
18168;SDS011;49877;50.398;30.324;2022-12-10T01:57:25;192.10;;;28.83;;
18168;SDS011;49877;50.398;30.324;2022-12-10T01:59:54;204.60;;;32.67;;
18168;SDS011;49877;50.398;30.324;2022-12-10T02:02:26;230.73;;;33.53;;
18168;SDS011;49877;50.398;30.324;2022-12-10T02:05:03;201.80;;;31.00;;
18168;SDS011;49877;50.398;30.324;2022-12-10T02:07:39;154.67;;;28.70;;
18168;SDS011;49877;50.398;30.324;2022-12-10T02:10:19;140.13;;;26.23;;
18168;SDS011;49877;50.398;30.324;2022-12-10T02:12:56;147.17;;;27.23;;
18168;SDS011;49877;50.398;30.324;2022-12-10T06:19:21;21.90;;;13.87;;
18168;SDS011;49877;50.398;30.324;2022-12-10T06:21:48;21.07;;;13.73;;
18168;SDS011;49877;50.398;30.324;2022-12-10T06:24:15;21.80;;;14.23;;
18168;SDS011;49877;50.398;30.324;2022-12-10T06:26:42;19.20;;;12.50;;
18168;SDS011;49877;50.398;30.324;2022-12-10T06:29:08;19.77;;;13.07;;
18168;SDS011;49877;50.398;30.324;2022-12-10T06:31:35;17.53;;;12.00;;
18168;SDS011;49877;50.398;30.324;2022-12-10T06:34:02;18.63;;;12.10;;
18168;SDS011;49877;50.398;30.324;2022-12-10T06:36:30;17.57;;;11.87;;
18168;SDS011;49877;50.398;30.324;2022-12-10T06:38:57;17.13;;;11.47;;
18168;SDS011;49877;50.398;30.324;2022-12-10T06:41:24;30.13;;;17.97;;
18168;SDS011;49877;50.398;30.324;2022-12-10T06:43:51;20.97;;;13.63;;
18168;SDS011;49877;50.398;30.324;2022-12-10T06:46:19;16.40;;;11.70;;
18168;SDS011;49877;50.398;30.324;2022-12-10T06:48:46;16.13;;;11.50;;
18168;SDS011;49877;50.398;30.324;2022-12-10T06:51:13;18.67;;;11.87;;
18168;SDS011;49877;50.398;30.324;2022-12-10T06:53:43;18.33;;;12.47;;
18168;SDS011;49877;50.398;30.324;2022-12-10T06:56:11;18.27;;;12.00;;
18168;SDS011;49877;50.398;30.324;2022-12-10T06:58:40;19.67;;;12.63;;
18168;SDS011;49877;50.398;30.324;2022-12-10T07:01:08;18.67;;;12.47;;
18168;SDS011;49877;50.398;30.324;2022-12-10T07:03:37;18.37;;;11.97;;
18168;SDS011;49877;50.398;30.324;2022-12-10T07:06:05;17.23;;;11.70;;
18168;SDS011;49877;50.398;30.324;2022-12-10T07:08:33;19.03;;;12.93;;
18168;SDS011;49877;50.398;30.324;2022-12-10T07:11:04;22.50;;;14.27;;
18168;SDS011;49877;50.398;30.324;2022-12-10T07:13:31;21.03;;;14.07;;
18168;SDS011;49877;50.398;30.324;2022-12-10T07:15:58;20.03;;;13.70;;
18168;SDS011;49877;50.398;30.324;2022-12-10T07:18:25;19.73;;;13.77;;
18168;SDS011;49877;50.398;30.324;2022-12-10T07:20:52;20.03;;;13.10;;
18168;SDS011;49877;50.398;30.324;2022-12-10T07:23:19;19.77;;;12.47;;
18168;SDS011;49877;50.398;30.324;2022-12-10T07:25:47;17.47;;;12.43;;
18168;SDS011;49877;50.398;30.324;2022-12-10T07:28:15;20.17;;;12.97;;
18168;SDS011;49877;50.398;30.324;2022-12-10T07:30:42;18.83;;;12.40;;
18168;SDS011;49877;50.398;30.324;2022-12-10T07:33:09;18.83;;;12.50;;
18168;SDS011;49877;50.398;30.324;2022-12-10T07:35:37;18.93;;;12.37;;
18168;SDS011;49877;50.398;30.324;2022-12-10T07:38:04;17.37;;;12.10;;
18168;SDS011;49877;50.398;30.324;2022-12-10T07:40:31;26.27;;;15.67;;
18168;SDS011;49877;50.398;30.324;2022-12-10T07:42:57;32.07;;;20.90;;
18168;SDS011;49877;50.398;30.324;2022-12-10T07:45:25;21.63;;;13.30;;
18168;SDS011;49877;50.398;30.324;2022-12-10T07:47:52;19.17;;;12.00;;
18168;SDS011;49877;50.398;30.324;2022-12-10T07:50:19;18.60;;;11.50;;
18168;SDS011;49877;50.398;30.324;2022-12-10T07:52:46;19.07;;;12.20;;
18168;SDS011;49877;50.398;30.324;2022-12-10T07:55:13;23.30;;;13.20;;
18168;SDS011;49877;50.398;30.324;2022-12-10T07:57:40;22.10;;;13.80;;
18168;SDS011;49877;50.398;30.324;2022-12-10T08:00:07;28.93;;;14.97;;
18168;SDS011;49877;50.398;30.324;2022-12-10T08:02:36;26.23;;;15.50;;
18168;SDS011;49877;50.398;30.324;2022-12-10T08:05:03;22.47;;;13.60;;
18168;SDS011;49877;50.398;30.324;2022-12-10T08:07:31;25.10;;;14.17;;
18168;SDS011;49877;50.398;30.324;2022-12-10T08:09:58;21.67;;;13.07;;
18168;SDS011;49877;50.398;30.324;2022-12-10T08:12:25;35.37;;;19.20;;
18168;SDS011;49877;50.398;30.324;2022-12-10T08:14:52;24.10;;;13.13;;
18168;SDS011;49877;50.398;30.324;2022-12-10T08:17:19;22.43;;;12.53;;
18168;SDS011;49877;50.398;30.324;2022-12-10T08:19:47;18.97;;;11.53;;
18168;SDS011;49877;50.398;30.324;2022-12-10T08:22:14;21.10;;;11.87;;
18168;SDS011;49877;50.398;30.324;2022-12-10T08:24:41;22.43;;;13.00;;
18168;SDS011;49877;50.398;30.324;2022-12-10T08:27:08;22.37;;;12.80;;
18168;SDS011;49877;50.398;30.324;2022-12-10T08:29:34;21.60;;;13.13;;
18168;SDS011;49877;50.398;30.324;2022-12-10T08:32:01;23.30;;;13.00;;
18168;SDS011;49877;50.398;30.324;2022-12-10T08:34:28;21.97;;;12.40;;
18168;SDS011;49877;50.398;30.324;2022-12-10T08:36:56;29.23;;;13.60;;
18168;SDS011;49877;50.398;30.324;2022-12-10T08:39:23;25.30;;;12.50;;
18168;SDS011;49877;50.398;30.324;2022-12-10T08:41:50;25.20;;;13.23;;
18168;SDS011;49877;50.398;30.324;2022-12-10T08:44:17;27.47;;;13.20;;
18168;SDS011;49877;50.398;30.324;2022-12-10T08:46:43;38.10;;;19.53;;
18168;SDS011;49877;50.398;30.324;2022-12-10T08:49:10;32.57;;;19.10;;
18168;SDS011;49877;50.398;30.324;2022-12-10T08:51:38;21.33;;;13.20;;
18168;SDS011;49877;50.398;30.324;2022-12-10T08:54:06;21.87;;;11.80;;
18168;SDS011;49877;50.398;30.324;2022-12-10T08:56:33;20.37;;;11.93;;
18168;SDS011;49877;50.398;30.324;2022-12-10T08:59:00;20.33;;;11.20;;
18168;SDS011;49877;50.398;30.324;2022-12-10T09:01:27;71.53;;;37.27;;
18168;SDS011;49877;50.398;30.324;2022-12-10T09:03:54;81.43;;;40.67;;
18168;SDS011;49877;50.398;30.324;2022-12-10T09:06:21;20.37;;;11.53;;
18168;SDS011;49877;50.398;30.324;2022-12-10T09:08:50;24.00;;;12.50;;
18168;SDS011;49877;50.398;30.324;2022-12-10T09:11:19;20.40;;;11.07;;
18168;SDS011;49877;50.398;30.324;2022-12-10T09:13:47;17.97;;;10.17;;
18168;SDS011;49877;50.398;30.324;2022-12-10T09:16:14;18.60;;;10.20;;
18168;SDS011;49877;50.398;30.324;2022-12-10T09:18:42;25.90;;;11.87;;
18168;SDS011;49877;50.398;30.324;2022-12-10T09:21:09;21.60;;;11.23;;
18168;SDS011;49877;50.398;30.324;2022-12-10T09:23:38;25.27;;;12.03;;
18168;SDS011;49877;50.398;30.324;2022-12-10T09:26:05;23.37;;;12.07;;
18168;SDS011;49877;50.398;30.324;2022-12-10T09:28:34;24.00;;;11.97;;
18168;SDS011;49877;50.398;30.324;2022-12-10T09:31:01;20.90;;;11.60;;
18168;SDS011;49877;50.398;30.324;2022-12-10T09:33:29;19.43;;;11.37;;
18168;SDS011;49877;50.398;30.324;2022-12-10T09:35:56;19.33;;;11.57;;
18168;SDS011;49877;50.398;30.324;2022-12-10T09:38:23;30.97;;;19.30;;
18168;SDS011;49877;50.398;30.324;2022-12-10T09:40:56;19.27;;;11.07;;
18168;SDS011;49877;50.398;30.324;2022-12-10T09:43:28;33.93;;;21.03;;
18168;SDS011;49877;50.398;30.324;2022-12-10T09:46:09;28.43;;;16.77;;
18168;SDS011;49877;50.398;30.324;2022-12-10T09:48:47;20.20;;;10.80;;
18168;SDS011;49877;50.398;30.324;2022-12-10T09:51:24;22.07;;;11.93;;
18168;SDS011;49877;50.398;30.324;2022-12-10T09:53:53;21.27;;;11.93;;
18168;SDS011;49877;50.398;30.324;2022-12-10T09:56:26;21.80;;;12.00;;
18168;SDS011;49877;50.398;30.324;2022-12-10T09:58:57;19.87;;;11.17;;
18168;SDS011;49877;50.398;30.324;2022-12-10T10:01:28;17.30;;;10.27;;
18168;SDS011;49877;50.398;30.324;2022-12-10T10:03:57;18.63;;;10.87;;
18168;SDS011;49877;50.398;30.324;2022-12-10T10:06:24;23.43;;;11.13;;
18168;SDS011;49877;50.398;30.324;2022-12-10T10:08:54;21.00;;;10.90;;
18168;SDS011;49877;50.398;30.324;2022-12-10T14:24:26;55.50;;;23.20;;
18168;SDS011;49877;50.398;30.324;2022-12-10T14:26:59;433.80;;;40.97;;
18168;SDS011;49877;50.398;30.324;2022-12-10T14:29:28;48.80;;;23.17;;
18168;SDS011;49877;50.398;30.324;2022-12-10T14:31:55;89.37;;;28.07;;
18168;SDS011;49877;50.398;30.324;2022-12-10T14:34:24;52.77;;;24.27;;
18168;SDS011;49877;50.398;30.324;2022-12-10T14:36:54;56.03;;;23.37;;
18168;SDS011;49877;50.398;30.324;2022-12-10T14:39:24;92.70;;;29.20;;
18168;SDS011;49877;50.398;30.324;2022-12-10T14:41:55;47.30;;;23.40;;
18168;SDS011;49877;50.398;30.324;2022-12-10T14:44:23;55.37;;;22.83;;
18168;SDS011;49877;50.398;30.324;2022-12-10T14:46:51;67.23;;;23.87;;
18168;SDS011;49877;50.398;30.324;2022-12-10T14:49:28;128.90;;;30.53;;
18168;SDS011;49877;50.398;30.324;2022-12-10T14:51:55;39.90;;;20.67;;
18168;SDS011;49877;50.398;30.324;2022-12-10T14:54:27;42.03;;;21.80;;
18168;SDS011;49877;50.398;30.324;2022-12-10T14:56:56;39.80;;;20.13;;
18168;SDS011;49877;50.398;30.324;2022-12-10T14:59:27;38.50;;;20.60;;
18168;SDS011;49877;50.398;30.324;2022-12-10T15:01:59;122.07;;;57.50;;
18168;SDS011;49877;50.398;30.324;2022-12-10T15:04:38;155.27;;;77.23;;
18168;SDS011;49877;50.398;30.324;2022-12-10T15:07:09;78.10;;;39.07;;
18168;SDS011;49877;50.398;30.324;2022-12-10T15:09:41;141.50;;;55.50;;
18168;SDS011;49877;50.398;30.324;2022-12-10T15:12:15;110.40;;;35.53;;
18168;SDS011;49877;50.398;30.324;2022-12-10T15:14:49;93.87;;;30.53;;
18168;SDS011;49877;50.398;30.324;2022-12-10T15:17:31;44.37;;;22.60;;
18168;SDS011;49877;50.398;30.324;2022-12-10T15:20:00;41.70;;;21.17;;
18168;SDS011;49877;50.398;30.324;2022-12-10T15:22:26;48.63;;;23.73;;
18168;SDS011;49877;50.398;30.324;2022-12-10T15:24:57;49.13;;;22.67;;
18168;SDS011;49877;50.398;30.324;2022-12-10T15:27:24;61.47;;;23.47;;
18168;SDS011;49877;50.398;30.324;2022-12-10T15:29:52;48.00;;;25.07;;
18168;SDS011;49877;50.398;30.324;2022-12-10T15:32:19;65.73;;;29.03;;
18168;SDS011;49877;50.398;30.324;2022-12-10T15:34:53;172.07;;;37.90;;
18168;SDS011;49877;50.398;30.324;2022-12-10T15:37:23;51.67;;;25.07;;
18168;SDS011;49877;50.398;30.324;2022-12-10T15:39:52;80.10;;;31.77;;
18168;SDS011;49877;50.398;30.324;2022-12-10T15:42:36;59.37;;;30.83;;
18168;SDS011;49877;50.398;30.324;2022-12-10T15:45:11;61.47;;;30.17;;
18168;SDS011;49877;50.398;30.324;2022-12-10T15:47:45;71.50;;;33.13;;
18168;SDS011;49877;50.398;30.324;2022-12-10T15:50:12;62.63;;;30.77;;
18168;SDS011;49877;50.398;30.324;2022-12-10T15:52:40;67.40;;;33.03;;
18168;SDS011;49877;50.398;30.324;2022-12-10T15:55:07;76.93;;;34.37;;
18168;SDS011;49877;50.398;30.324;2022-12-10T15:57:37;93.70;;;34.47;;
18168;SDS011;49877;50.398;30.324;2022-12-10T16:00:10;459.93;;;54.43;;
18168;SDS011;49877;50.398;30.324;2022-12-10T16:02:43;64.20;;;28.63;;
18168;SDS011;49877;50.398;30.324;2022-12-10T16:05:13;59.57;;;29.03;;
18168;SDS011;49877;50.398;30.324;2022-12-10T16:07:41;79.20;;;32.67;;
18168;SDS011;49877;50.398;30.324;2022-12-10T16:10:09;64.90;;;29.07;;
18168;SDS011;49877;50.398;30.324;2022-12-10T16:12:38;62.20;;;29.13;;
18168;SDS011;49877;50.398;30.324;2022-12-10T16:15:07;64.53;;;30.17;;
18168;SDS011;49877;50.398;30.324;2022-12-10T16:17:41;58.67;;;28.63;;
18168;SDS011;49877;50.398;30.324;2022-12-10T16:20:13;58.23;;;29.47;;
18168;SDS011;49877;50.398;30.324;2022-12-10T16:22:46;133.60;;;40.47;;
18168;SDS011;49877;50.398;30.324;2022-12-10T16:25:13;489.17;;;62.83;;
18168;SDS011;49877;50.398;30.324;2022-12-10T16:27:42;228.87;;;44.30;;
18168;SDS011;49877;50.398;30.324;2022-12-10T16:30:11;369.33;;;59.63;;
18168;SDS011;49877;50.398;30.324;2022-12-10T16:32:40;64.13;;;31.93;;
18168;SDS011;49877;50.398;30.324;2022-12-10T16:35:07;198.70;;;44.70;;
18168;SDS011;49877;50.398;30.324;2022-12-10T16:37:35;149.97;;;42.60;;
18168;SDS011;49877;50.398;30.324;2022-12-10T16:40:02;188.20;;;37.27;;
18168;SDS011;49877;50.398;30.324;2022-12-10T16:42:29;125.10;;;33.27;;
18168;SDS011;49877;50.398;30.324;2022-12-10T16:44:57;63.50;;;30.40;;
18168;SDS011;49877;50.398;30.324;2022-12-10T16:47:25;57.00;;;29.97;;
18168;SDS011;49877;50.398;30.324;2022-12-10T16:49:51;59.87;;;31.77;;
18168;SDS011;49877;50.398;30.324;2022-12-10T16:52:18;66.03;;;31.93;;
18168;SDS011;49877;50.398;30.324;2022-12-10T16:54:45;62.87;;;32.50;;
18168;SDS011;49877;50.398;30.324;2022-12-10T16:57:12;64.00;;;31.17;;
18168;SDS011;49877;50.398;30.324;2022-12-10T16:59:40;67.90;;;33.33;;
18168;SDS011;49877;50.398;30.324;2022-12-10T17:04:41;160.10;;;49.77;;
18168;SDS011;49877;50.398;30.324;2022-12-10T17:07:08;73.97;;;36.10;;
18168;SDS011;49877;50.398;30.324;2022-12-10T17:09:36;85.33;;;39.87;;
18168;SDS011;49877;50.398;30.324;2022-12-10T17:12:04;57.13;;;31.83;;
18168;SDS011;49877;50.398;30.324;2022-12-10T17:14:32;57.00;;;31.50;;
18168;SDS011;49877;50.398;30.324;2022-12-10T17:17:01;101.27;;;47.93;;
18168;SDS011;49877;50.398;30.324;2022-12-10T17:19:31;81.17;;;45.27;;
18168;SDS011;49877;50.398;30.324;2022-12-10T17:21:59;70.53;;;39.30;;
18168;SDS011;49877;50.398;30.324;2022-12-10T17:24:26;96.13;;;48.97;;
18168;SDS011;49877;50.398;30.324;2022-12-10T17:26:54;67.63;;;37.53;;
18168;SDS011;49877;50.398;30.324;2022-12-10T17:29:25;66.67;;;36.40;;
18168;SDS011;49877;50.398;30.324;2022-12-10T17:31:54;71.90;;;40.83;;
18168;SDS011;49877;50.398;30.324;2022-12-10T17:34:21;62.20;;;35.83;;
18168;SDS011;49877;50.398;30.324;2022-12-10T17:36:50;68.40;;;37.63;;
18168;SDS011;49877;50.398;30.324;2022-12-10T17:39:18;69.13;;;37.13;;
18168;SDS011;49877;50.398;30.324;2022-12-10T17:41:46;75.27;;;39.60;;
18168;SDS011;49877;50.398;30.324;2022-12-10T17:44:13;64.90;;;37.63;;
18168;SDS011;49877;50.398;30.324;2022-12-10T17:46:40;79.20;;;39.77;;
18168;SDS011;49877;50.398;30.324;2022-12-10T17:49:09;85.80;;;40.83;;
18168;SDS011;49877;50.398;30.324;2022-12-10T17:51:38;75.30;;;38.03;;
18168;SDS011;49877;50.398;30.324;2022-12-10T17:54:07;58.17;;;33.53;;
18168;SDS011;49877;50.398;30.324;2022-12-10T17:56:33;67.30;;;37.87;;
